createdAt,value
2023-02-15T00:00:06.770Z,1022.27
2023-02-15T00:01:06.748Z,1022.26
2023-02-15T00:02:06.753Z,1022.30
2023-02-15T00:03:06.804Z,1022.32
2023-02-15T00:04:06.712Z,1022.27
2023-02-15T00:05:06.738Z,1022.29
2023-02-15T00:06:06.663Z,1022.29
2023-02-15T00:07:06.692Z,1022.31
2023-02-15T00:08:06.654Z,1022.22
2023-02-15T00:09:06.636Z,1022.22
2023-02-15T00:10:06.625Z,1022.21
2023-02-15T00:11:06.629Z,1022.20
2023-02-15T00:12:06.603Z,1022.22
2023-02-15T00:13:06.610Z,1022.20
2023-02-15T00:14:06.600Z,1022.11
2023-02-15T00:15:06.561Z,1022.15
2023-02-15T00:16:06.588Z,1022.16
2023-02-15T00:17:06.562Z,1022.15
2023-02-15T00:18:06.540Z,1022.19
2023-02-15T00:19:06.544Z,1022.05
2023-02-15T00:20:06.541Z,1022.13
2023-02-15T00:21:06.489Z,1022.08
2023-02-15T00:22:06.511Z,1022.08
2023-02-15T00:23:06.486Z,1022.10
2023-02-15T00:24:06.470Z,1022.15
2023-02-15T00:25:06.463Z,1022.09
2023-02-15T00:26:06.474Z,1022.11
2023-02-15T00:27:06.452Z,1022.06
2023-02-15T00:28:06.429Z,1022.12
2023-02-15T00:29:06.436Z,1022.03
2023-02-15T00:30:06.470Z,1022.05
2023-02-15T00:31:06.493Z,1022.04
2023-02-15T00:32:06.415Z,1022.03
2023-02-15T00:33:06.362Z,1022.09
2023-02-15T00:34:06.356Z,1022.02
2023-02-15T00:35:06.369Z,1021.96
2023-02-15T00:36:06.339Z,1022.03
2023-02-15T00:37:06.335Z,1022.02
2023-02-15T00:38:06.343Z,1022.03
2023-02-15T00:39:06.317Z,1022.03
2023-02-15T00:40:06.310Z,1022.04
2023-02-15T00:41:06.272Z,1022.04
2023-02-15T00:42:06.268Z,1022.05
2023-02-15T00:43:06.277Z,1022.08
2023-02-15T00:44:06.241Z,1022.08
2023-02-15T00:45:06.240Z,1022.10
2023-02-15T00:46:06.346Z,1022.07
2023-02-15T00:47:06.209Z,1022.07
2023-02-15T00:48:06.216Z,1022.07
2023-02-15T00:49:06.223Z,1022.07
2023-02-15T00:50:06.179Z,1022.06
2023-02-15T00:51:06.216Z,1022.02
2023-02-15T00:52:06.175Z,1022.02
2023-02-15T00:53:06.153Z,1022.03
2023-02-15T00:54:06.135Z,1022.02
2023-02-15T00:55:06.139Z,1021.97
2023-02-15T00:56:06.127Z,1022.07
2023-02-15T00:57:06.096Z,1022.07
2023-02-15T00:58:06.105Z,1022.08
2023-02-15T00:59:06.112Z,1022.09
2023-02-15T01:00:06.111Z,1022.10
2023-02-15T01:01:06.078Z,1022.07
2023-02-15T01:02:06.067Z,1022.10
2023-02-15T01:03:06.059Z,1022.07
2023-02-15T01:04:06.069Z,1022.04
2023-02-15T01:05:06.030Z,1022.03
2023-02-15T01:06:06.016Z,1022.04
2023-02-15T01:07:06.022Z,1022.01
2023-02-15T01:08:05.996Z,1022.08
2023-02-15T01:09:05.970Z,1022.04
2023-02-15T01:10:05.955Z,1022.06
2023-02-15T01:11:05.955Z,1022.05
2023-02-15T01:12:05.939Z,1022.04
2023-02-15T01:13:05.948Z,1022.04
2023-02-15T01:14:05.940Z,1022.01
2023-02-15T01:15:05.921Z,1022.00
2023-02-15T01:16:06.161Z,1022.01
2023-02-15T01:17:05.906Z,1022.02
2023-02-15T01:18:05.880Z,1022.05
2023-02-15T01:19:05.857Z,1022.00
2023-02-15T01:20:05.857Z,1022.02
2023-02-15T01:21:05.876Z,1022.04
2023-02-15T01:22:05.835Z,1022.03
2023-02-15T01:23:05.860Z,1022.02
2023-02-15T01:24:05.829Z,1021.96
2023-02-15T01:25:05.825Z,1021.93
2023-02-15T01:26:05.814Z,1021.89
2023-02-15T01:27:05.794Z,1021.98
2023-02-15T01:28:05.758Z,1021.98
2023-02-15T01:29:05.769Z,1021.92
2023-02-15T01:30:05.797Z,1021.93
2023-02-15T01:31:05.794Z,1021.90
2023-02-15T01:32:05.936Z,1021.90
2023-02-15T01:33:05.725Z,1021.91
2023-02-15T01:34:05.713Z,1021.89
2023-02-15T01:35:05.685Z,1021.88
2023-02-15T01:36:05.692Z,1021.87
2023-02-15T01:37:05.756Z,1021.85
2023-02-15T01:38:05.691Z,1021.86
2023-02-15T01:39:05.703Z,1021.86
2023-02-15T01:40:05.654Z,1021.80
2023-02-15T01:41:05.633Z,1021.79
2023-02-15T01:42:05.629Z,1021.84
2023-02-15T01:43:05.604Z,1021.80
2023-02-15T01:44:05.602Z,1021.78
2023-02-15T01:45:05.571Z,1021.80
2023-02-15T01:46:05.761Z,1021.76
2023-02-15T01:47:05.574Z,1021.73
2023-02-15T01:48:05.590Z,1021.73
2023-02-15T01:49:05.582Z,1021.74
2023-02-15T01:50:05.571Z,1021.70
2023-02-15T01:51:05.514Z,1021.76
2023-02-15T01:52:05.527Z,1021.70
2023-02-15T01:53:05.516Z,1021.73
2023-02-15T01:54:05.511Z,1021.68
2023-02-15T01:55:07.175Z,1021.71
2023-02-15T01:56:05.509Z,1021.70
2023-02-15T01:57:05.481Z,1021.72
2023-02-15T01:58:05.438Z,1021.70
2023-02-15T01:59:05.418Z,1021.72
2023-02-15T02:00:05.411Z,1021.71
2023-02-15T02:01:05.433Z,1021.68
2023-02-15T02:02:05.422Z,1021.69
2023-02-15T02:03:05.537Z,1021.63
2023-02-15T02:04:05.391Z,1021.68
2023-02-15T02:05:05.375Z,1021.67
2023-02-15T02:06:05.357Z,1021.67
2023-02-15T02:07:05.347Z,1021.69
2023-02-15T02:08:05.333Z,1021.63
2023-02-15T02:09:05.355Z,1021.67
2023-02-15T02:10:05.303Z,1021.60
2023-02-15T02:11:05.354Z,1021.69
2023-02-15T02:12:05.319Z,1021.66
2023-02-15T02:13:05.283Z,1021.63
2023-02-15T02:14:05.274Z,1021.65
2023-02-15T02:15:05.292Z,1021.63
2023-02-15T02:16:05.397Z,1021.60
2023-02-15T02:17:05.228Z,1021.64
2023-02-15T02:18:05.243Z,1021.63
2023-02-15T02:19:05.200Z,1021.62
2023-02-15T02:20:05.215Z,1021.62
2023-02-15T02:21:05.184Z,1021.64
2023-02-15T02:22:05.171Z,1021.56
2023-02-15T02:23:05.164Z,1021.53
2023-02-15T02:24:05.155Z,1021.58
2023-02-15T02:25:05.185Z,1021.57
2023-02-15T02:26:05.152Z,1021.58
2023-02-15T02:27:05.150Z,1021.56
2023-02-15T02:28:05.126Z,1021.53
2023-02-15T02:29:05.095Z,1021.55
2023-02-15T02:30:05.144Z,1021.45
2023-02-15T02:31:05.222Z,1021.50
2023-02-15T02:32:05.121Z,1021.44
2023-02-15T02:33:07.027Z,1021.49
2023-02-15T02:34:05.042Z,1021.45
2023-02-15T02:35:05.058Z,1021.47
2023-02-15T02:36:05.030Z,1021.45
2023-02-15T02:37:05.019Z,1021.35
2023-02-15T02:38:04.998Z,1021.41
2023-02-15T02:39:04.995Z,1021.40
2023-02-15T02:40:04.991Z,1021.38
2023-02-15T02:41:05.015Z,1021.45
2023-02-15T02:42:04.953Z,1021.44
2023-02-15T02:43:04.963Z,1021.40
2023-02-15T02:44:04.944Z,1021.38
2023-02-15T02:45:04.935Z,1021.43
2023-02-15T02:46:05.084Z,1021.36
2023-02-15T02:47:04.903Z,1021.39
2023-02-15T02:48:04.887Z,1021.40
2023-02-15T02:49:04.912Z,1021.43
2023-02-15T02:50:04.878Z,1021.35
2023-02-15T02:51:04.854Z,1021.41
2023-02-15T02:52:04.858Z,1021.37
2023-02-15T02:53:04.872Z,1021.28
2023-02-15T02:54:04.836Z,1021.34
2023-02-15T02:55:04.865Z,1021.35
2023-02-15T02:56:04.807Z,1021.33
2023-02-15T02:57:04.800Z,1021.32
2023-02-15T02:58:04.775Z,1021.28
2023-02-15T02:59:04.799Z,1021.31
2023-02-15T03:00:04.751Z,1021.32
2023-02-15T03:01:04.780Z,1021.31
2023-02-15T03:02:04.799Z,1021.27
2023-02-15T03:03:04.757Z,1021.20
2023-02-15T03:04:04.711Z,1021.20
2023-02-15T03:05:04.961Z,1021.19
2023-02-15T03:06:04.692Z,1021.18
2023-02-15T03:07:04.688Z,1021.15
2023-02-15T03:08:04.671Z,1021.15
2023-02-15T03:09:04.700Z,1021.16
2023-02-15T03:10:04.640Z,1021.15
2023-02-15T03:11:04.659Z,1021.14
2023-02-15T03:12:04.638Z,1021.12
2023-02-15T03:13:04.624Z,1021.12
2023-02-15T03:14:04.616Z,1021.15
2023-02-15T03:15:04.681Z,1021.16
2023-02-15T03:16:04.811Z,1021.12
2023-02-15T03:17:04.577Z,1021.05
2023-02-15T03:18:04.572Z,1021.04
2023-02-15T03:19:04.569Z,1021.08
2023-02-15T03:20:04.549Z,1021.02
2023-02-15T03:21:04.541Z,1021.05
2023-02-15T03:22:04.636Z,1021.06
2023-02-15T03:23:04.522Z,1020.99
2023-02-15T03:24:04.500Z,1020.98
2023-02-15T03:25:04.513Z,1021.00
2023-02-15T03:26:04.595Z,1020.98
2023-02-15T03:27:04.475Z,1020.96
2023-02-15T03:28:04.484Z,1020.92
2023-02-15T03:29:04.443Z,1020.94
2023-02-15T03:30:04.517Z,1020.87
2023-02-15T03:31:04.622Z,1020.93
2023-02-15T03:32:04.604Z,1020.90
2023-02-15T03:33:04.422Z,1020.89
2023-02-15T03:34:04.417Z,1020.89
2023-02-15T03:35:04.385Z,1020.91
2023-02-15T03:36:04.419Z,1020.85
2023-02-15T03:37:06.198Z,1020.84
2023-02-15T03:38:04.415Z,1020.86
2023-02-15T03:39:04.362Z,1020.81
2023-02-15T03:40:04.330Z,1020.89
2023-02-15T03:41:04.370Z,1020.89
2023-02-15T03:42:04.313Z,1020.89
2023-02-15T03:43:04.290Z,1020.87
2023-02-15T03:44:04.285Z,1020.89
2023-02-15T03:45:04.288Z,1020.85
2023-02-15T03:46:04.279Z,1020.85
2023-02-15T03:47:04.288Z,1020.86
2023-02-15T03:48:04.232Z,1020.87
2023-02-15T03:49:04.258Z,1020.91
2023-02-15T03:50:04.222Z,1020.94
2023-02-15T03:51:04.212Z,1020.84
2023-02-15T03:52:04.187Z,1020.85
2023-02-15T03:53:04.211Z,1020.92
2023-02-15T03:54:04.167Z,1020.93
2023-02-15T03:55:04.182Z,1020.93
2023-02-15T03:56:04.390Z,1020.90
2023-02-15T03:57:04.168Z,1020.89
2023-02-15T03:58:04.148Z,1020.83
2023-02-15T03:59:04.124Z,1020.83
2023-02-15T04:00:04.112Z,1020.87
2023-02-15T04:01:04.192Z,1020.86
2023-02-15T04:02:04.080Z,1020.84
2023-02-15T04:03:04.187Z,1020.85
2023-02-15T04:04:04.058Z,1020.81
2023-02-15T04:05:04.062Z,1020.84
2023-02-15T04:06:04.251Z,1020.83
2023-02-15T04:07:04.066Z,1020.85
2023-02-15T04:08:04.027Z,1020.83
2023-02-15T04:09:04.021Z,1020.80
2023-02-15T04:10:04.006Z,1020.87
2023-02-15T04:11:03.999Z,1020.85
2023-02-15T04:12:03.979Z,1020.82
2023-02-15T04:13:03.984Z,1020.82
2023-02-15T04:14:03.963Z,1020.87
2023-02-15T04:15:03.971Z,1020.81
2023-02-15T04:16:04.482Z,1020.77
2023-02-15T04:17:03.919Z,1020.83
2023-02-15T04:18:03.937Z,1020.78
2023-02-15T04:19:03.918Z,1020.80
2023-02-15T04:20:03.889Z,1020.80
2023-02-15T04:21:03.916Z,1020.77
2023-02-15T04:22:03.859Z,1020.76
2023-02-15T04:23:03.849Z,1020.87
2023-02-15T04:24:03.852Z,1020.86
2023-02-15T04:25:03.825Z,1020.79
2023-02-15T04:26:03.952Z,1020.74
2023-02-15T04:27:03.813Z,1020.77
2023-02-15T04:28:03.795Z,1020.77
2023-02-15T04:29:03.796Z,1020.71
2023-02-15T04:30:03.843Z,1020.74
2023-02-15T04:31:03.783Z,1020.73
2023-02-15T04:32:03.925Z,1020.77
2023-02-15T04:33:03.745Z,1020.80
2023-02-15T04:34:03.735Z,1020.80
2023-02-15T04:35:03.740Z,1020.76
2023-02-15T04:36:03.962Z,1020.74
2023-02-15T04:37:03.694Z,1020.83
2023-02-15T04:38:03.690Z,1020.82
2023-02-15T04:39:03.684Z,1020.76
2023-02-15T04:40:03.670Z,1020.77
2023-02-15T04:41:03.681Z,1020.76
2023-02-15T04:42:03.674Z,1020.75
2023-02-15T04:43:03.633Z,1020.70
2023-02-15T04:44:03.654Z,1020.70
2023-02-15T04:45:03.636Z,1020.74
2023-02-15T04:46:04.066Z,1020.74
2023-02-15T04:47:03.598Z,1020.74
2023-02-15T04:48:03.567Z,1020.75
2023-02-15T04:49:03.584Z,1020.61
2023-02-15T04:50:03.563Z,1020.70
2023-02-15T04:51:03.586Z,1020.73
2023-02-15T04:52:03.547Z,1020.71
2023-02-15T04:53:03.520Z,1020.72
2023-02-15T04:54:03.525Z,1020.70
2023-02-15T04:55:03.523Z,1020.74
2023-02-15T04:56:03.751Z,1020.67
2023-02-15T04:57:03.528Z,1020.74
2023-02-15T04:58:04.137Z,1020.78
2023-02-15T04:59:03.489Z,1020.76
2023-02-15T05:00:03.462Z,1020.71
2023-02-15T05:01:03.496Z,1020.67
2023-02-15T05:02:03.433Z,1020.67
2023-02-15T05:03:03.429Z,1020.70
2023-02-15T05:04:03.428Z,1020.73
2023-02-15T05:05:03.420Z,1020.67
2023-02-15T05:06:03.661Z,1020.72
2023-02-15T05:07:03.394Z,1020.76
2023-02-15T05:08:03.377Z,1020.77
2023-02-15T05:09:03.359Z,1020.72
2023-02-15T05:10:03.365Z,1020.77
2023-02-15T05:11:03.338Z,1020.72
2023-02-15T05:12:03.310Z,1020.75
2023-02-15T05:13:03.297Z,1020.74
2023-02-15T05:14:03.282Z,1020.73
2023-02-15T05:15:03.291Z,1020.78
2023-02-15T05:16:03.532Z,1020.76
2023-02-15T05:17:03.272Z,1020.74
2023-02-15T05:18:03.273Z,1020.70
2023-02-15T05:19:03.261Z,1020.75
2023-02-15T05:20:03.252Z,1020.70
2023-02-15T05:21:03.245Z,1020.75
2023-02-15T05:22:03.216Z,1020.75
2023-02-15T05:23:03.221Z,1020.68
2023-02-15T05:24:03.216Z,1020.72
2023-02-15T05:25:03.167Z,1020.72
2023-02-15T05:26:03.508Z,1020.66
2023-02-15T05:27:03.159Z,1020.63
2023-02-15T05:28:05.154Z,1020.66
2023-02-15T05:29:03.127Z,1020.66
2023-02-15T05:30:03.302Z,1020.67
2023-02-15T05:31:03.431Z,1020.64
2023-02-15T05:32:03.384Z,1020.62
2023-02-15T05:33:03.093Z,1020.64
2023-02-15T05:34:03.107Z,1020.57
2023-02-15T05:35:03.074Z,1020.58
2023-02-15T05:36:03.435Z,1020.52
2023-02-15T05:37:03.082Z,1020.54
2023-02-15T05:38:03.055Z,1020.57
2023-02-15T05:39:03.056Z,1020.52
2023-02-15T05:40:03.034Z,1020.51
2023-02-15T05:41:03.007Z,1020.53
2023-02-15T05:42:03.003Z,1020.57
2023-02-15T05:43:02.987Z,1020.57
2023-02-15T05:44:02.966Z,1020.64
2023-02-15T05:45:02.979Z,1020.66
2023-02-15T05:46:03.369Z,1020.67
2023-02-15T05:47:02.993Z,1020.62
2023-02-15T05:48:02.939Z,1020.67
2023-02-15T05:49:02.930Z,1020.60
2023-02-15T05:50:02.907Z,1020.54
2023-02-15T05:51:02.910Z,1020.58
2023-02-15T05:52:02.878Z,1020.71
2023-02-15T05:53:02.912Z,1020.74
2023-02-15T05:54:02.880Z,1020.72
2023-02-15T05:55:02.925Z,1020.73
2023-02-15T05:56:03.218Z,1020.68
2023-02-15T05:57:02.858Z,1020.68
2023-02-15T05:58:02.830Z,1020.59
2023-02-15T05:59:02.816Z,1020.65
2023-02-15T06:00:02.813Z,1020.69
2023-02-15T06:01:02.806Z,1020.66
2023-02-15T06:02:02.819Z,1020.72
2023-02-15T06:03:02.870Z,1020.68
2023-02-15T06:04:02.768Z,1020.67
2023-02-15T06:05:02.841Z,1020.63
2023-02-15T06:06:03.139Z,1020.67
2023-02-15T06:07:02.753Z,1020.63
2023-02-15T06:08:04.509Z,1020.66
2023-02-15T06:09:02.721Z,1020.57
2023-02-15T06:10:02.686Z,1020.54
2023-02-15T06:11:02.724Z,1020.62
2023-02-15T06:12:02.691Z,1020.56
2023-02-15T06:13:02.688Z,1020.59
2023-02-15T06:14:02.669Z,1020.55
2023-02-15T06:15:02.641Z,1020.60
2023-02-15T06:16:02.925Z,1020.59
2023-02-15T06:17:02.642Z,1020.57
2023-02-15T06:18:02.653Z,1020.55
2023-02-15T06:19:02.607Z,1020.59
2023-02-15T06:20:02.590Z,1020.59
2023-02-15T06:21:02.589Z,1020.56
2023-02-15T06:22:02.603Z,1020.50
2023-02-15T06:23:02.574Z,1020.61
2023-02-15T06:24:02.543Z,1020.65
2023-02-15T06:25:02.535Z,1020.62
2023-02-15T06:26:02.852Z,1020.58
2023-02-15T06:27:02.532Z,1020.57
2023-02-15T06:28:02.536Z,1020.55
2023-02-15T06:29:02.491Z,1020.61
2023-02-15T06:30:02.498Z,1020.62
2023-02-15T06:31:02.634Z,1020.64
2023-02-15T06:32:02.633Z,1020.63
2023-02-15T06:33:02.450Z,1020.58
2023-02-15T06:34:02.430Z,1020.61
2023-02-15T06:35:02.414Z,1020.56
2023-02-15T06:36:02.689Z,1020.61
2023-02-15T06:37:02.402Z,1020.63
2023-02-15T06:38:02.391Z,1020.61
2023-02-15T06:39:02.479Z,1020.71
2023-02-15T06:40:03.935Z,1020.69
2023-02-15T06:41:02.367Z,1020.65
2023-02-15T06:42:02.337Z,1020.66
2023-02-15T06:43:02.417Z,1020.68
2023-02-15T06:44:02.325Z,1020.72
2023-02-15T06:45:02.336Z,1020.74
2023-02-15T06:46:02.658Z,1020.65
2023-02-15T06:47:02.297Z,1020.71
2023-02-15T06:48:02.264Z,1020.76
2023-02-15T06:49:02.314Z,1020.73
2023-02-15T06:50:02.310Z,1020.73
2023-02-15T06:51:02.544Z,1020.75
2023-02-15T06:52:02.244Z,1020.73
2023-02-15T06:53:02.211Z,1020.76
2023-02-15T06:54:02.233Z,1020.72
2023-02-15T06:55:02.212Z,1020.71
2023-02-15T06:56:02.558Z,1020.76
2023-02-15T06:57:02.253Z,1020.76
2023-02-15T06:58:02.168Z,1020.76
2023-02-15T06:59:02.196Z,1020.70
2023-02-15T07:00:02.576Z,1020.71
2023-02-15T07:01:02.176Z,1020.77
2023-02-15T07:02:02.125Z,1020.68
2023-02-15T07:03:02.117Z,1020.71
2023-02-15T07:04:02.165Z,1020.69
2023-02-15T07:05:02.157Z,1020.76
2023-02-15T07:06:02.505Z,1020.69
2023-02-15T07:07:02.074Z,1020.75
2023-02-15T07:08:02.064Z,1020.72
2023-02-15T07:09:02.069Z,1020.74
2023-02-15T07:10:02.049Z,1020.67
2023-02-15T07:11:02.032Z,1020.67
2023-02-15T07:12:02.023Z,1020.60
2023-02-15T07:13:02.001Z,1020.61
2023-02-15T07:14:01.990Z,1020.56
2023-02-15T07:15:02.018Z,1020.50
2023-02-15T07:16:02.354Z,1020.55
2023-02-15T07:17:01.978Z,1020.42
2023-02-15T07:18:02.074Z,1020.48
2023-02-15T07:19:02.039Z,1020.49
2023-02-15T07:20:01.982Z,1020.53
2023-02-15T07:21:01.940Z,1020.37
2023-02-15T07:22:01.888Z,1020.42
2023-02-15T07:23:01.946Z,1020.51
2023-02-15T07:24:01.871Z,1020.47
2023-02-15T07:25:01.887Z,1020.48
2023-02-15T07:26:02.251Z,1020.50
2023-02-15T07:27:01.842Z,1020.61
2023-02-15T07:28:01.852Z,1020.42
2023-02-15T07:29:01.824Z,1020.49
2023-02-15T07:30:01.940Z,1020.47
2023-02-15T07:31:01.913Z,1020.45
2023-02-15T07:32:01.874Z,1020.47
2023-02-15T07:33:04.635Z,1020.42
2023-02-15T07:34:01.776Z,1020.39
2023-02-15T07:35:01.841Z,1020.39
2023-02-15T07:36:02.171Z,1020.47
2023-02-15T07:37:01.798Z,1020.41
2023-02-15T07:38:01.761Z,1020.40
2023-02-15T07:39:01.790Z,1020.36
2023-02-15T07:40:01.689Z,1020.34
2023-02-15T07:41:01.711Z,1020.23
2023-02-15T07:42:01.672Z,1020.27
2023-02-15T07:43:01.696Z,1020.34
2023-02-15T07:44:01.665Z,1020.32
2023-02-15T07:45:01.660Z,1020.32
2023-02-15T07:46:01.944Z,1020.23
2023-02-15T07:47:01.730Z,1020.29
2023-02-15T07:48:01.606Z,1020.24
2023-02-15T07:49:01.649Z,1020.25
2023-02-15T07:50:01.604Z,1020.26
2023-02-15T07:51:01.606Z,1020.25
2023-02-15T07:52:01.651Z,1020.14
2023-02-15T07:53:01.623Z,1020.21
2023-02-15T07:54:01.598Z,1020.15
2023-02-15T07:55:01.580Z,1020.16
2023-02-15T07:56:01.859Z,1020.19
2023-02-15T07:57:01.551Z,1020.14
2023-02-15T07:58:01.521Z,1020.05
2023-02-15T07:59:01.501Z,1020.17
2023-02-15T08:00:03.000Z,1020.12
2023-02-15T08:01:01.504Z,1020.17
2023-02-15T08:02:01.490Z,1020.12
2023-02-15T08:03:01.710Z,1020.16
2023-02-15T08:04:01.509Z,1020.08
2023-02-15T08:05:01.426Z,1020.11
2023-02-15T08:06:01.761Z,1020.02
2023-02-15T08:07:01.416Z,1020.07
2023-02-15T08:08:01.492Z,1020.04
2023-02-15T08:09:01.377Z,1020.04
2023-02-15T08:10:01.416Z,1019.98
2023-02-15T08:11:01.383Z,1020.02
2023-02-15T08:12:01.381Z,1020.02
2023-02-15T08:13:01.332Z,1019.99
2023-02-15T08:14:01.381Z,1019.98
2023-02-15T08:15:01.344Z,1020.05
2023-02-15T08:16:01.803Z,1019.99
2023-02-15T08:17:01.303Z,1019.97
2023-02-15T08:18:01.297Z,1020.02
2023-02-15T08:19:01.319Z,1020.03
2023-02-15T08:20:01.297Z,1019.95
2023-02-15T08:21:01.250Z,1019.96
2023-02-15T08:22:01.255Z,1019.84
2023-02-15T08:23:01.283Z,1019.91
2023-02-15T08:24:01.356Z,1019.84
2023-02-15T08:25:01.230Z,1019.84
2023-02-15T08:26:01.725Z,1019.81
2023-02-15T08:27:01.201Z,1019.83
2023-02-15T08:28:01.200Z,1019.90
2023-02-15T08:29:01.177Z,1019.77
2023-02-15T08:30:01.312Z,1019.86
2023-02-15T08:31:01.601Z,1019.86
2023-02-15T08:32:01.154Z,1019.84
2023-02-15T08:33:01.134Z,1019.81
2023-02-15T08:34:01.130Z,1019.88
2023-02-15T08:35:01.155Z,1019.76
2023-02-15T08:36:01.137Z,1019.85
2023-02-15T08:37:01.184Z,1019.86
2023-02-15T08:38:01.097Z,1019.88
2023-02-15T08:39:01.088Z,1019.87
2023-02-15T08:40:01.097Z,1019.82
2023-02-15T08:41:01.389Z,1019.70
2023-02-15T08:42:01.053Z,1019.86
2023-02-15T08:43:01.081Z,1019.91
2023-02-15T08:44:01.022Z,1019.90
2023-02-15T08:45:01.004Z,1019.95
2023-02-15T08:46:01.070Z,1020.01
2023-02-15T08:47:00.985Z,1019.99
2023-02-15T08:48:00.984Z,1019.95
2023-02-15T08:49:00.969Z,1019.91
2023-02-15T08:50:01.037Z,1020.01
2023-02-15T08:51:01.292Z,1020.02
2023-02-15T08:52:00.985Z,1019.98
2023-02-15T08:53:00.910Z,1019.96
2023-02-15T08:54:00.895Z,1019.95
2023-02-15T08:55:00.886Z,1019.90
2023-02-15T08:56:00.928Z,1019.83
2023-02-15T08:57:00.871Z,1019.89
2023-02-15T08:58:00.872Z,1019.85
2023-02-15T08:59:00.863Z,1019.81
2023-02-15T09:00:00.841Z,1019.84
2023-02-15T09:01:01.177Z,1019.80
2023-02-15T09:02:00.854Z,1019.80
2023-02-15T09:03:00.823Z,1019.86
2023-02-15T09:04:00.789Z,1019.82
2023-02-15T09:05:00.795Z,1019.75
2023-02-15T09:06:00.813Z,1019.77
2023-02-15T09:07:00.832Z,1019.73
2023-02-15T09:08:00.769Z,1019.72
2023-02-15T09:09:00.785Z,1019.68
2023-02-15T09:10:00.772Z,1019.68
2023-02-15T09:11:01.084Z,1019.59
2023-02-15T09:12:00.743Z,1019.62
2023-02-15T09:13:00.741Z,1019.58
2023-02-15T09:14:00.684Z,1019.60
2023-02-15T09:15:00.766Z,1019.60
2023-02-15T09:16:00.728Z,1019.63
2023-02-15T09:17:00.688Z,1019.62
2023-02-15T09:18:00.647Z,1019.64
2023-02-15T09:19:00.627Z,1019.68
2023-02-15T09:20:00.638Z,1019.66
2023-02-15T09:21:00.999Z,1019.65
2023-02-15T09:22:00.593Z,1019.68
2023-02-15T09:23:00.642Z,1019.71
2023-02-15T09:24:00.618Z,1019.66
2023-02-15T09:25:00.600Z,1019.67
2023-02-15T09:26:00.552Z,1019.67
2023-02-15T09:27:00.553Z,1019.62
2023-02-15T09:28:00.526Z,1019.69
2023-02-15T09:29:00.518Z,1019.69
2023-02-15T09:30:00.615Z,1019.67
2023-02-15T09:31:01.122Z,1019.71
2023-02-15T09:32:00.578Z,1019.74
2023-02-15T09:33:00.475Z,1019.73
2023-02-15T09:34:00.444Z,1019.76
2023-02-15T09:35:00.512Z,1019.79
2023-02-15T09:36:00.433Z,1019.80
2023-02-15T09:37:00.437Z,1019.74
2023-02-15T09:38:00.400Z,1019.81
2023-02-15T09:39:00.485Z,1019.76
2023-02-15T09:40:00.806Z,1019.75
2023-02-15T09:41:00.914Z,1019.86
2023-02-15T09:42:00.379Z,1019.83
2023-02-15T09:43:00.338Z,1019.85
2023-02-15T09:44:00.344Z,1019.82
2023-02-15T09:45:00.350Z,1019.85
2023-02-15T09:46:00.458Z,1019.86
2023-02-15T09:47:00.391Z,1019.80
2023-02-15T09:48:00.287Z,1019.83
2023-02-15T09:49:00.314Z,1019.83
2023-02-15T09:50:00.294Z,1019.84
2023-02-15T09:51:00.635Z,1019.89
2023-02-15T09:52:00.318Z,1019.85
2023-02-15T09:53:00.331Z,1019.73
2023-02-15T09:54:00.255Z,1019.73
2023-02-15T09:55:00.291Z,1019.86
2023-02-15T09:56:00.226Z,1019.80
2023-02-15T09:57:00.197Z,1019.83
2023-02-15T09:58:00.203Z,1019.86
2023-02-15T09:59:00.200Z,1019.76
2023-02-15T10:00:00.194Z,1019.77
2023-02-15T10:01:00.653Z,1019.73
2023-02-15T10:02:00.171Z,1019.79
2023-02-15T10:03:00.162Z,1019.81
2023-02-15T10:04:00.148Z,1019.83
2023-02-15T10:05:00.120Z,1019.85
2023-02-15T10:06:00.121Z,1019.81
2023-02-15T10:07:00.104Z,1019.77
2023-02-15T10:08:00.116Z,1019.75
2023-02-15T10:09:00.098Z,1019.82
2023-02-15T10:10:00.053Z,1019.83
2023-02-15T10:11:00.388Z,1019.84
2023-02-15T10:12:00.084Z,1019.78
2023-02-15T10:13:00.116Z,1019.83
2023-02-15T10:14:00.018Z,1019.84
2023-02-15T10:15:00.021Z,1019.72
2023-02-15T10:16:00.003Z,1019.86
2023-02-15T10:17:00.061Z,1019.79
2023-02-15T10:17:59.978Z,1019.83
2023-02-15T10:18:59.983Z,1019.79
2023-02-15T10:19:59.970Z,1019.82
2023-02-15T10:21:00.281Z,1019.80
2023-02-15T10:21:59.950Z,1019.83
2023-02-15T10:22:59.912Z,1019.83
2023-02-15T10:23:59.911Z,1019.78
2023-02-15T10:24:59.921Z,1019.82
2023-02-15T10:26:00.321Z,1019.79
2023-02-15T10:26:59.925Z,1019.79
2023-02-15T10:27:59.875Z,1019.70
2023-02-15T10:28:59.871Z,1019.68
2023-02-15T10:29:59.894Z,1019.68
2023-02-15T10:31:00.167Z,1019.68
2023-02-15T10:32:00.059Z,1019.70
2023-02-15T10:32:59.825Z,1019.69
2023-02-15T10:33:59.825Z,1019.69
2023-02-15T10:35:00.298Z,1019.65
2023-02-15T10:35:59.816Z,1019.66
2023-02-15T10:36:59.829Z,1019.68
2023-02-15T10:37:59.741Z,1019.67
2023-02-15T10:38:59.731Z,1019.71
2023-02-15T10:39:59.718Z,1019.68
2023-02-15T10:41:00.119Z,1019.70
2023-02-15T10:41:59.716Z,1019.68
2023-02-15T10:42:59.751Z,1019.68
2023-02-15T10:43:59.802Z,1019.67
2023-02-15T10:44:59.673Z,1019.66
2023-02-15T10:45:59.755Z,1019.67
2023-02-15T10:46:59.712Z,1019.69
2023-02-15T10:47:59.652Z,1019.67
2023-02-15T10:48:59.645Z,1019.64
2023-02-15T10:49:59.628Z,1019.67
2023-02-15T10:50:59.731Z,1019.63
2023-02-15T10:51:59.590Z,1019.68
2023-02-15T10:52:59.626Z,1019.64
2023-02-15T10:53:59.574Z,1019.66
2023-02-15T10:54:59.624Z,1019.62
2023-02-15T10:55:59.637Z,1019.64
2023-02-15T10:56:59.549Z,1019.65
2023-02-15T10:58:01.285Z,1019.56
2023-02-15T10:59:00.043Z,1019.52
2023-02-15T10:59:59.534Z,1019.53
2023-02-15T11:00:59.668Z,1019.47
2023-02-15T11:01:59.487Z,1019.48
2023-02-15T11:02:59.471Z,1019.48
2023-02-15T11:03:59.513Z,1019.41
2023-02-15T11:04:59.566Z,1019.41
2023-02-15T11:05:59.480Z,1019.46
2023-02-15T11:06:59.447Z,1019.37
2023-02-15T11:07:59.432Z,1019.38
2023-02-15T11:08:59.476Z,1019.41
2023-02-15T11:09:59.420Z,1019.32
2023-02-15T11:10:59.522Z,1019.35
2023-02-15T11:11:59.370Z,1019.32
2023-02-15T11:12:59.362Z,1019.30
2023-02-15T11:13:59.386Z,1019.25
2023-02-15T11:14:59.382Z,1019.21
2023-02-15T11:15:59.343Z,1019.25
2023-02-15T11:16:59.330Z,1019.27
2023-02-15T11:17:59.347Z,1019.22
2023-02-15T11:18:59.320Z,1019.20
2023-02-15T11:19:59.313Z,1019.15
2023-02-15T11:20:59.342Z,1019.11
2023-02-15T11:21:59.257Z,1019.17
2023-02-15T11:22:59.286Z,1019.13
2023-02-15T11:23:59.281Z,1019.10
2023-02-15T11:24:59.335Z,1019.10
2023-02-15T11:25:59.223Z,1019.11
2023-02-15T11:26:59.263Z,1019.04
2023-02-15T11:27:59.227Z,1019.08
2023-02-15T11:28:59.190Z,1019.05
2023-02-15T11:29:59.239Z,1018.98
2023-02-15T11:30:59.267Z,1019.01
2023-02-15T11:31:59.297Z,1018.95
2023-02-15T11:32:59.167Z,1019.00
2023-02-15T11:33:59.154Z,1018.98
2023-02-15T11:34:59.112Z,1019.02
2023-02-15T11:36:00.003Z,1018.98
2023-02-15T11:36:59.126Z,1018.97
2023-02-15T11:37:59.108Z,1019.02
2023-02-15T11:38:59.106Z,1019.03
2023-02-15T11:39:59.070Z,1018.88
2023-02-15T11:40:59.056Z,1018.93
2023-02-15T11:41:59.162Z,1018.83
2023-02-15T11:42:59.237Z,1018.88
2023-02-15T11:43:59.035Z,1018.82
2023-02-15T11:44:59.025Z,1018.86
2023-02-15T11:45:59.054Z,1018.85
2023-02-15T11:46:59.025Z,1018.76
2023-02-15T11:47:58.990Z,1018.83
2023-02-15T11:48:59.084Z,1018.67
2023-02-15T11:49:58.974Z,1018.72
2023-02-15T11:50:58.990Z,1018.71
2023-02-15T11:51:58.945Z,1018.83
2023-02-15T11:52:59.062Z,1018.82
2023-02-15T11:53:58.932Z,1018.79
2023-02-15T11:54:58.959Z,1018.78
2023-02-15T11:55:58.911Z,1018.88
2023-02-15T11:56:59.017Z,1018.78
2023-02-15T11:57:58.965Z,1018.77
2023-02-15T11:58:58.954Z,1018.78
2023-02-15T11:59:58.911Z,1018.76
2023-02-15T12:00:58.850Z,1018.80
2023-02-15T12:01:58.872Z,1018.81
2023-02-15T12:02:58.934Z,1018.75
2023-02-15T12:03:58.873Z,1018.69
2023-02-15T12:04:58.844Z,1018.68